EDDH Airport Information

Runway Information
Runway 05 Length 10663 ft width 150 ft
Elevation 32 ft Threshold 978 ft Heading 50
Runway 23 Length 10663 ft Width 150 ft
Elevation 43 ft Threshold 512 ft Heading 230
Runway 15 Length 12028 ft width 150 ft
Elevation 53 ft Threshold 0 ft Heading 153
Runway 33 Length 12028 ft Width 150 ft
Elevation 35 ft Threshold 1464 ft Heading 333
Airport Frequencies
Type ATIS Name ATIS Frequency 123.125 MHZ
Type DIR Name DIRECTOR Frequency 118.2 MHZ
Type GND Name GND Frequency 121.8 MHZ
Type RDR Name BREMEN RAD Frequency 134.25 MHZ
Type RMP Name APRON Frequency 121.7 MHZ
Type TWR Name TWR Frequency 126.85 MHZ
Airport Navaids
Type DME Name Alster Frequency 115800 KHZ
Type NDB Name Hamburg West Frequency 351 KHZ
Type NDB Name Hamburg North Frequency 323 KHZ
Type VORTAC Name Hamburg Frequency 113100 KHZ
Type NDB Name Hamburg Frequency 339 KHZ
Airport Weather Information & NOTAM
ADDS - METARS form results

(0847 UTC 24 April 2018)
 
METAR text: EDDH 240820Z 22012KT 9999 FEW014 BKN015 11/08 Q1011 TEMPO 24015G25KT 4500 -RADZ BKN009
Conditions at: EDDH (HAMBURG/FUHLSBUT, DE) observed 0820 UTC 24 April 2018
Temperature: 11.0°C (52°F)
Dewpoint: 8.0°C (46°F) [RH = 82%]
Pressure (altimeter): 29.85 inches Hg (1011.0 mb)
Winds: from the SW (220 degrees) at 14 MPH (12 knots; 6.2 m/s)
Visibility: 6 or more miles (10+ km)
Ceiling: 1500 feet AGL
Clouds: few clouds at 1400 feet AGL
broken clouds at 1500 feet AGL
Weather: no significant weather observed at this time

METAR text: EDDH 240750Z 24012KT 210V270 9999 FEW015 BKN016 11/07 Q1011 BECMG BKN014
Conditions at: EDDH (HAMBURG/FUHLSBUT, DE) observed 0750 UTC 24 April 2018
Temperature: 11.0°C (52°F)
Dewpoint: 7.0°C (45°F) [RH = 76%]
Pressure (altimeter): 29.85 inches Hg (1011.0 mb)
Winds: from the WSW (240 degrees) at 14 MPH (12 knots; 6.2 m/s)
Visibility: 6 or more miles (10+ km)
Ceiling: 1600 feet AGL
Clouds: few clouds at 1500 feet AGL
broken clouds at 1600 feet AGL
Weather: no significant weather observed at this time